createdAt,value
2022-08-22T00:00:22.067Z,96.92
2022-08-22T00:01:31.253Z,96.67
2022-08-22T00:02:40.407Z,97.41
2022-08-22T00:03:49.575Z,96.43
2022-08-22T00:04:57.746Z,97.16
2022-08-22T00:06:06.935Z,95.45
2022-08-22T00:07:16.113Z,94.48
2022-08-22T00:08:25.266Z,96.67
2022-08-22T00:09:34.444Z,93.99
2022-08-22T00:10:43.622Z,93.99
2022-08-22T00:11:52.797Z,94.48
2022-08-22T00:13:01.970Z,91.3
2022-08-22T00:14:11.143Z,92.04
2022-08-22T00:15:20.301Z,92.77
2022-08-22T00:16:29.472Z,92.04
2022-08-22T00:17:38.647Z,91.55
2022-08-22T00:18:47.839Z,91.79
2022-08-22T00:19:56.040Z,92.28
2022-08-22T00:21:05.212Z,90.08
2022-08-22T00:22:14.366Z,89.11
2022-08-22T00:23:23.538Z,87.64
2022-08-22T00:24:32.708Z,87.4
2022-08-22T00:25:41.869Z,86.18
2022-08-22T00:26:51.043Z,88.37
2022-08-22T00:28:00.248Z,88.86
2022-08-22T00:29:09.382Z,93.75
2022-08-22T00:30:18.561Z,84.96
2022-08-22T00:31:27.738Z,86.91
2022-08-22T00:32:36.906Z,90.82
2022-08-22T00:33:46.074Z,85.2
2022-08-22T00:34:55.261Z,85.2
2022-08-22T00:36:03.436Z,88.86
2022-08-22T00:37:12.610Z,86.18
2022-08-22T00:38:21.781Z,85.93
2022-08-22T00:39:30.968Z,85.69
2022-08-22T00:40:40.138Z,84.47
2022-08-22T00:41:49.301Z,85.2
2022-08-22T00:42:58.473Z,84.71
2022-08-22T00:44:07.647Z,84.96
2022-08-22T00:45:16.838Z,85.93
2022-08-22T00:46:25.999Z,83.98
2022-08-22T00:47:35.179Z,85.69
2022-08-22T00:49:53.510Z,84.47
2022-08-22T00:51:01.708Z,83
2022-08-22T00:52:10.874Z,83
2022-08-22T00:53:20.046Z,83
2022-08-22T00:54:29.217Z,85.44
2022-08-22T00:55:38.398Z,81.29
2022-08-22T00:56:47.563Z,81.05
2022-08-22T00:57:56.738Z,81.29
2022-08-22T00:59:05.906Z,81.54
2022-08-22T01:00:15.083Z,80.81
2022-08-22T01:01:24.258Z,81.54
2022-08-22T01:02:33.415Z,81.54
2022-08-22T01:04:51.767Z,82.27
2022-08-22T01:05:59.953Z,81.29
2022-08-22T01:07:09.144Z,80.56
2022-08-22T01:08:18.298Z,80.56
2022-08-22T01:09:27.481Z,81.78
2022-08-22T01:10:36.663Z,81.54
2022-08-22T01:11:45.833Z,81.78
2022-08-22T01:12:55.000Z,84.47
2022-08-22T01:14:04.182Z,82.51
2022-08-22T01:15:13.333Z,82.76
2022-08-22T01:16:22.531Z,83.49
2022-08-22T01:17:31.684Z,83.74
2022-08-22T01:18:40.867Z,82.76
2022-08-22T01:19:50.022Z,85.2
2022-08-22T01:20:58.223Z,85.44
2022-08-22T01:22:07.391Z,84.71
2022-08-22T01:23:16.557Z,87.4
2022-08-22T01:24:25.737Z,88.86
2022-08-22T01:25:34.925Z,85.93
2022-08-22T01:26:44.089Z,88.37
2022-08-22T01:27:53.263Z,90.08
2022-08-22T01:29:02.436Z,91.3
2022-08-22T01:30:11.589Z,89.35
2022-08-22T01:31:20.766Z,88.86
2022-08-22T01:32:29.950Z,89.35
2022-08-22T01:33:39.127Z,91.06
2022-08-22T01:34:48.281Z,93.01
2022-08-22T01:37:05.664Z,95.21
2022-08-22T01:38:14.827Z,97.65
2022-08-22T01:39:23.990Z,96.43
2022-08-22T01:40:33.173Z,97.16
2022-08-22T01:41:42.340Z,97.16
2022-08-22T01:42:51.522Z,97.16
2022-08-22T01:44:00.701Z,96.19
2022-08-22T01:45:09.858Z,97.41
2022-08-22T01:46:19.022Z,96.92
2022-08-22T01:47:28.219Z,95.45
2022-08-22T01:48:37.379Z,94.23
2022-08-22T01:49:46.539Z,92.04
2022-08-22T01:50:54.727Z,92.28
2022-08-22T01:52:03.906Z,93.01
2022-08-22T01:53:13.113Z,94.97
2022-08-22T01:54:22.247Z,94.48
2022-08-22T01:55:31.423Z,93.99
2022-08-22T01:56:40.606Z,92.77
2022-08-22T01:57:49.810Z,90.82
2022-08-22T01:58:58.950Z,92.52
2022-08-22T02:00:08.119Z,90.57
2022-08-22T02:01:17.287Z,89.35
2022-08-22T02:02:26.461Z,88.62
2022-08-22T02:03:35.635Z,89.35
2022-08-22T02:04:44.800Z,88.37
2022-08-22T02:05:52.991Z,87.15
2022-08-22T02:07:02.165Z,86.66
2022-08-22T02:08:11.344Z,86.91
2022-08-22T02:09:20.511Z,85.2
2022-08-22T02:10:29.699Z,85.44
2022-08-22T02:11:38.859Z,85.93
2022-08-22T02:12:48.023Z,85.44
2022-08-22T02:13:57.196Z,84.96
2022-08-22T02:15:06.379Z,86.18
2022-08-22T02:16:15.541Z,85.2
2022-08-22T02:17:24.715Z,86.18
2022-08-22T02:18:33.888Z,83.49
2022-08-22T02:19:43.083Z,83.49
2022-08-22T02:20:51.255Z,83.98
2022-08-22T02:22:00.428Z,83
2022-08-22T02:23:09.601Z,82.27
2022-08-22T02:24:18.770Z,84.22
2022-08-22T02:25:27.941Z,82.76
2022-08-22T02:26:37.113Z,83.74
2022-08-22T02:27:46.314Z,82.27
2022-08-22T02:28:55.462Z,82.03
2022-08-22T02:30:04.632Z,82.03
2022-08-22T02:31:13.808Z,83
2022-08-22T02:32:22.984Z,81.78
2022-08-22T02:33:32.145Z,83
2022-08-22T02:34:41.326Z,80.81
2022-08-22T02:35:49.509Z,82.27
2022-08-22T02:36:58.696Z,82.27
2022-08-22T02:38:07.864Z,81.78
2022-08-22T02:39:17.041Z,81.54
2022-08-22T02:40:26.198Z,80.81
2022-08-22T02:41:35.384Z,81.05
2022-08-22T02:42:44.546Z,80.56
2022-08-22T02:43:53.714Z,80.32
2022-08-22T02:45:02.895Z,80.56
2022-08-22T02:46:12.064Z,80.81
2022-08-22T02:47:21.236Z,81.29
2022-08-22T02:48:30.425Z,81.29
2022-08-22T02:49:39.588Z,79.34
2022-08-22T02:50:47.775Z,80.81
2022-08-22T02:51:56.942Z,78.36
2022-08-22T02:53:06.126Z,79.83
2022-08-22T02:54:15.293Z,78.36
2022-08-22T02:55:24.461Z,79.83
2022-08-22T02:56:33.632Z,79.83
2022-08-22T02:57:42.812Z,81.05
2022-08-22T02:58:51.995Z,79.1
2022-08-22T03:00:01.163Z,81.05
2022-08-22T03:01:10.328Z,81.05
2022-08-22T03:02:19.505Z,80.56
2022-08-22T03:03:28.675Z,80.56
2022-08-22T03:04:37.841Z,80.81
2022-08-22T03:05:46.046Z,81.05
2022-08-22T03:06:55.204Z,80.32
2022-08-22T03:08:04.389Z,80.56
2022-08-22T03:09:13.556Z,80.07
2022-08-22T03:10:22.731Z,80.56
2022-08-22T03:11:31.900Z,81.54
2022-08-22T03:12:41.060Z,81.54
2022-08-22T03:13:50.258Z,81.78
2022-08-22T03:14:59.427Z,81.05
2022-08-22T03:16:08.593Z,80.32
2022-08-22T03:17:17.749Z,81.29
2022-08-22T03:18:26.929Z,82.03
2022-08-22T03:19:36.127Z,84.96
2022-08-22T03:20:44.289Z,82.27
2022-08-22T03:21:53.472Z,84.47
2022-08-22T03:23:02.641Z,84.71
2022-08-22T03:24:11.805Z,83.98
2022-08-22T03:25:20.978Z,83.49
2022-08-22T03:26:30.162Z,91.79
2022-08-22T03:27:39.333Z,85.2
2022-08-22T03:28:48.503Z,85.93
2022-08-22T03:29:57.678Z,86.91
2022-08-22T03:31:06.845Z,89.11
2022-08-22T03:32:16.017Z,90.57
2022-08-22T03:33:25.191Z,90.57
2022-08-22T03:34:34.366Z,90.57
2022-08-22T03:35:42.549Z,91.79
2022-08-22T03:36:51.728Z,95.21
2022-08-22T03:38:00.891Z,95.94
2022-08-22T03:39:10.063Z,91.55
2022-08-22T03:40:19.236Z,92.28
2022-08-22T03:41:27.434Z,97.41
2022-08-22T03:42:36.626Z,94.97
2022-08-22T03:43:45.781Z,94.97
2022-08-22T03:44:54.954Z,94.97
2022-08-22T03:46:04.147Z,96.19
2022-08-22T03:47:13.294Z,97.41
2022-08-22T03:48:22.480Z,96.19
2022-08-22T03:49:31.645Z,95.94
2022-08-22T03:50:40.819Z,94.23
2022-08-22T03:51:49.982Z,94.23
2022-08-22T03:52:59.162Z,93.75
2022-08-22T03:54:08.334Z,93.75
2022-08-22T03:55:17.514Z,92.28
2022-08-22T03:56:25.693Z,94.97
2022-08-22T03:57:34.864Z,94.48
2022-08-22T03:58:44.031Z,93.75
2022-08-22T03:59:53.205Z,95.45
2022-08-22T04:01:02.377Z,96.19
2022-08-22T04:02:11.548Z,94.97
2022-08-22T04:03:20.716Z,94.72
2022-08-22T04:04:29.895Z,94.23
2022-08-22T04:05:39.062Z,94.48
2022-08-22T04:06:48.242Z,94.97
2022-08-22T04:07:57.443Z,92.52
2022-08-22T04:09:06.595Z,92.77
2022-08-22T04:10:15.776Z,92.52
2022-08-22T04:11:23.958Z,93.5
2022-08-22T04:12:33.123Z,92.04
2022-08-22T04:13:42.286Z,92.77
2022-08-22T04:14:51.465Z,91.79
2022-08-22T04:16:00.634Z,93.01
2022-08-22T04:17:09.808Z,93.01
2022-08-22T04:18:18.982Z,103.75
2022-08-22T04:19:28.151Z,102.53
2022-08-22T04:20:37.316Z,92.04
2022-08-22T04:21:46.500Z,92.28
2022-08-22T04:22:55.665Z,93.75
2022-08-22T04:24:04.839Z,92.52
2022-08-22T04:25:14.016Z,91.55
2022-08-22T04:26:22.204Z,91.3
2022-08-22T04:27:31.370Z,91.55
2022-08-22T04:28:40.548Z,91.55
2022-08-22T04:29:49.721Z,91.3
2022-08-22T04:30:58.899Z,91.79
2022-08-22T04:32:08.076Z,90.82
2022-08-22T04:33:17.235Z,91.06
2022-08-22T04:34:26.415Z,92.04
2022-08-22T04:35:35.584Z,92.28
2022-08-22T04:36:44.753Z,92.52
2022-08-22T04:37:53.917Z,93.75
2022-08-22T04:39:03.099Z,92.77
2022-08-22T04:40:12.280Z,92.04
2022-08-22T04:41:20.450Z,92.28
2022-08-22T04:42:29.629Z,91.55
2022-08-22T04:43:38.800Z,90.82
2022-08-22T04:44:47.995Z,91.79
2022-08-22T04:45:57.156Z,91.55
2022-08-22T04:47:06.320Z,92.28
2022-08-22T04:48:15.495Z,91.79
2022-08-22T04:49:24.672Z,91.79
2022-08-22T04:50:33.828Z,91.55
2022-08-22T04:51:43.013Z,90.82
2022-08-22T04:52:52.173Z,91.55
2022-08-22T04:54:01.354Z,93.5
2022-08-22T04:55:10.522Z,92.28
2022-08-22T04:56:18.721Z,92.52
2022-08-22T04:57:27.885Z,91.3
2022-08-22T04:59:46.276Z,91.06
2022-08-22T05:00:55.405Z,91.3
2022-08-22T05:02:04.588Z,93.75
2022-08-22T05:03:13.755Z,91.79
2022-08-22T05:04:22.916Z,90.82
2022-08-22T05:05:32.096Z,91.3
2022-08-22T05:06:41.261Z,100.83
2022-08-22T05:07:50.439Z,90.82
2022-08-22T05:08:59.607Z,91.79
2022-08-22T05:10:08.784Z,99.12
2022-08-22T05:11:16.973Z,122.07
2022-08-22T05:12:26.159Z,93.75
2022-08-22T05:13:35.330Z,88.37
2022-08-22T05:14:44.509Z,90.82
2022-08-22T05:15:53.655Z,87.89
2022-08-22T05:17:02.844Z,90.08
2022-08-22T05:18:12.023Z,90.33
2022-08-22T05:19:21.178Z,91.55
2022-08-22T05:20:30.350Z,94.97
2022-08-22T05:21:39.536Z,103.75
2022-08-22T05:22:48.688Z,104
2022-08-22T05:23:57.861Z,106.44
2022-08-22T05:25:07.037Z,101.8
2022-08-22T05:26:15.256Z,105.22
2022-08-22T05:27:24.416Z,103.27
2022-08-22T05:28:33.581Z,100.09
2022-08-22T05:29:42.744Z,99.12
2022-08-22T05:30:51.924Z,101.56
2022-08-22T05:32:01.124Z,99.85
2022-08-22T05:33:10.274Z,98.38
2022-08-22T05:34:19.438Z,99.6
2022-08-22T05:35:28.618Z,98.63
2022-08-22T05:36:37.795Z,100.09
2022-08-22T05:37:46.965Z,101.8
2022-08-22T05:38:56.126Z,103.51
2022-08-22T05:40:05.347Z,104.49
2022-08-22T05:41:13.491Z,119.62
2022-08-22T05:42:22.659Z,104.49
2022-08-22T05:43:31.837Z,104.73
2022-08-22T05:44:41.006Z,104.98
2022-08-22T05:45:50.182Z,103.27
2022-08-22T05:46:59.341Z,103.51
2022-08-22T05:48:08.525Z,104.49
2022-08-22T05:49:17.687Z,103.02
2022-08-22T05:50:26.864Z,100.83
2022-08-22T05:51:36.046Z,102.53
2022-08-22T05:52:45.231Z,105.22
2022-08-22T05:53:54.398Z,105.46
2022-08-22T05:55:03.570Z,104.49
2022-08-22T05:56:11.753Z,104
2022-08-22T05:57:20.919Z,103.51
2022-08-22T05:58:30.088Z,104
2022-08-22T05:59:39.259Z,104
2022-08-22T06:00:48.447Z,103.02
2022-08-22T06:01:57.611Z,103.51
2022-08-22T06:03:06.781Z,101.8
2022-08-22T06:04:15.946Z,102.05
2022-08-22T06:05:25.125Z,103.02
2022-08-22T06:06:34.303Z,109.37
2022-08-22T06:07:43.464Z,98.14
2022-08-22T06:08:52.637Z,101.31
2022-08-22T06:10:01.818Z,99.6
2022-08-22T06:11:10.012Z,97.16
2022-08-22T06:12:19.182Z,104
2022-08-22T06:13:28.356Z,103.02
2022-08-22T06:14:37.521Z,103.51
2022-08-22T06:15:46.693Z,105.71
2022-08-22T06:16:55.872Z,104.73
2022-08-22T06:18:05.039Z,104.98
2022-08-22T06:19:14.206Z,103.51
2022-08-22T06:20:23.376Z,100.83
2022-08-22T06:21:32.560Z,101.8
2022-08-22T06:22:41.731Z,102.29
2022-08-22T06:23:50.912Z,101.07
2022-08-22T06:25:00.069Z,102.53
2022-08-22T06:26:08.264Z,102.53
2022-08-22T06:27:17.476Z,103.75
2022-08-22T06:28:26.625Z,105.22
2022-08-22T06:29:35.787Z,104.73
2022-08-22T06:30:44.951Z,104.73
2022-08-22T06:31:54.125Z,104.98
2022-08-22T06:33:03.295Z,105.22
2022-08-22T06:34:12.467Z,103.02
2022-08-22T06:35:21.647Z,102.05
2022-08-22T06:36:30.818Z,102.05
2022-08-22T06:37:39.989Z,104.73
2022-08-22T06:38:49.184Z,104
2022-08-22T06:39:58.336Z,101.31
2022-08-22T06:41:06.514Z,102.05
2022-08-22T06:42:15.704Z,102.53
2022-08-22T06:43:24.873Z,103.27
2022-08-22T06:44:34.040Z,104.24
2022-08-22T06:45:43.217Z,105.46
2022-08-22T06:46:52.387Z,105.71
2022-08-22T06:48:01.576Z,104.24
2022-08-22T06:49:10.730Z,106.93
2022-08-22T06:50:19.909Z,104
2022-08-22T06:51:29.076Z,102.53
2022-08-22T06:52:38.255Z,105.22
2022-08-22T06:53:47.422Z,103.51
2022-08-22T06:54:56.597Z,101.31
2022-08-22T06:56:04.784Z,103.75
2022-08-22T06:57:13.948Z,103.27
2022-08-22T06:58:23.127Z,102.53
2022-08-22T06:59:32.309Z,104
2022-08-22T07:00:41.478Z,99.36
2022-08-22T07:01:50.660Z,118.16
2022-08-22T07:02:59.817Z,110.59
2022-08-22T07:04:08.997Z,111.32
2022-08-22T07:05:18.159Z,109.61
2022-08-22T07:06:27.355Z,107.91
2022-08-22T07:07:36.508Z,103.27
2022-08-22T07:08:45.675Z,104
2022-08-22T07:09:54.871Z,103.27
2022-08-22T07:11:03.046Z,103.27
2022-08-22T07:12:12.208Z,105.71
2022-08-22T07:13:21.397Z,104
2022-08-22T07:14:30.559Z,104.73
2022-08-22T07:15:39.727Z,108.15
2022-08-22T07:16:48.898Z,109.37
2022-08-22T07:17:58.074Z,111.32
2022-08-22T07:19:07.258Z,107.17
2022-08-22T07:20:16.422Z,111.08
2022-08-22T07:21:25.601Z,109.61
2022-08-22T07:22:34.781Z,107.66
2022-08-22T07:23:43.934Z,108.15
2022-08-22T07:24:53.123Z,107.17
2022-08-22T07:26:02.291Z,106.44
2022-08-22T07:27:10.467Z,108.88
2022-08-22T07:28:19.644Z,106.2
2022-08-22T07:29:28.832Z,109.13
2022-08-22T07:30:37.995Z,108.15
2022-08-22T07:31:47.166Z,106.2
2022-08-22T07:32:56.335Z,107.91
2022-08-22T07:34:04.522Z,105.95
2022-08-22T07:35:13.695Z,107.17
2022-08-22T07:36:22.881Z,110.1
2022-08-22T07:37:32.047Z,108.88
2022-08-22T07:38:41.217Z,107.91
2022-08-22T07:39:50.411Z,106.68
2022-08-22T07:40:59.565Z,106.68
2022-08-22T07:42:08.727Z,105.95
2022-08-22T07:43:17.908Z,106.68
2022-08-22T07:44:27.096Z,103.51
2022-08-22T07:45:36.259Z,102.78
2022-08-22T07:46:45.424Z,105.46
2022-08-22T07:47:54.597Z,106.44
2022-08-22T07:49:02.793Z,105.46
2022-08-22T07:50:11.960Z,105.71
2022-08-22T07:51:21.135Z,102.53
2022-08-22T07:52:30.300Z,103.51
2022-08-22T07:53:39.463Z,100.58
2022-08-22T07:54:48.648Z,100.83
2022-08-22T07:57:06.996Z,99.6
2022-08-22T07:58:16.171Z,102.53
2022-08-22T07:59:25.343Z,104
2022-08-22T08:00:34.514Z,102.53
2022-08-22T08:02:52.861Z,101.07
2022-08-22T08:04:01.038Z,103.75
2022-08-22T08:05:10.222Z,107.17
2022-08-22T08:06:19.402Z,105.22
2022-08-22T08:07:28.584Z,105.22
2022-08-22T08:08:37.732Z,104.24
2022-08-22T08:09:46.900Z,103.27
2022-08-22T08:10:56.077Z,103.02
2022-08-22T08:12:05.245Z,104.24
2022-08-22T08:13:14.423Z,123.53
2022-08-22T08:14:23.595Z,104.24
2022-08-22T08:15:32.768Z,103.75
2022-08-22T08:16:41.942Z,118.65
2022-08-22T08:17:51.104Z,114.01
2022-08-22T08:18:59.305Z,104.24
2022-08-22T08:20:08.468Z,111.57
2022-08-22T08:21:17.650Z,100.83
2022-08-22T08:22:26.816Z,111.32
2022-08-22T08:23:36.058Z,101.56
2022-08-22T08:24:45.163Z,101.07
2022-08-22T08:25:54.339Z,100.34
2022-08-22T08:27:03.512Z,100.34
2022-08-22T08:28:12.697Z,101.07
2022-08-22T08:29:21.859Z,102.78
2022-08-22T08:30:31.025Z,101.8
2022-08-22T08:31:40.209Z,102.53
2022-08-22T08:32:49.378Z,101.56
2022-08-22T08:33:58.600Z,103.75
2022-08-22T08:35:06.737Z,101.56
2022-08-22T08:36:15.908Z,101.07
2022-08-22T08:37:25.107Z,101.8
2022-08-22T08:38:34.250Z,99.85
2022-08-22T08:39:43.428Z,101.8
2022-08-22T08:40:52.598Z,103.75
2022-08-22T08:42:01.781Z,100.83
2022-08-22T08:43:10.944Z,102.05
2022-08-22T08:44:20.117Z,103.27
2022-08-22T08:45:29.310Z,100.58
2022-08-22T08:46:38.460Z,104
2022-08-22T08:47:47.648Z,100.34
2022-08-22T08:48:56.839Z,101.8
2022-08-22T08:50:05.012Z,103.75
2022-08-22T08:51:14.167Z,103.75
2022-08-22T08:52:23.365Z,103.27
2022-08-22T08:53:32.517Z,100.09
2022-08-22T08:54:41.725Z,101.8
2022-08-22T08:55:50.906Z,101.07
2022-08-22T08:57:00.042Z,101.8
2022-08-22T08:58:09.209Z,103.27
2022-08-22T08:59:18.408Z,101.31
2022-08-22T09:00:27.543Z,101.31
2022-08-22T09:01:36.720Z,103.02
2022-08-22T09:02:45.899Z,101.07
2022-08-22T09:03:55.064Z,100.58
2022-08-22T09:05:04.270Z,101.31
2022-08-22T09:06:12.466Z,104
2022-08-22T09:07:21.610Z,101.07
2022-08-22T09:08:30.792Z,101.8
2022-08-22T09:09:39.939Z,101.07
2022-08-22T09:10:49.135Z,102.05
2022-08-22T09:11:58.291Z,102.53
2022-08-22T09:13:07.481Z,100.34
2022-08-22T09:14:16.631Z,100.58
2022-08-22T09:15:25.851Z,99.6
2022-08-22T09:16:35.021Z,101.31
2022-08-22T09:17:44.196Z,101.31
2022-08-22T09:18:53.352Z,100.34
2022-08-22T09:20:02.517Z,99.85
2022-08-22T09:21:10.687Z,100.58
2022-08-22T09:22:19.865Z,102.78
2022-08-22T09:23:29.079Z,105.95
2022-08-22T09:24:38.200Z,101.56
2022-08-22T09:25:47.380Z,101.8
2022-08-22T09:26:56.542Z,104.24
2022-08-22T09:29:14.910Z,100.83
2022-08-22T09:30:24.092Z,101.31
2022-08-22T09:31:33.239Z,102.53
2022-08-22T09:32:42.429Z,100.34
2022-08-22T09:33:51.603Z,101.56
2022-08-22T09:35:00.759Z,98.87
2022-08-22T09:36:08.949Z,100.09
2022-08-22T09:37:18.140Z,99.6
2022-08-22T09:38:27.309Z,98.87
2022-08-22T09:39:36.470Z,97.41
2022-08-22T09:40:45.629Z,97.16
2022-08-22T09:41:54.835Z,97.9
2022-08-22T09:43:04.018Z,97.41
2022-08-22T09:44:13.152Z,96.92
2022-08-22T09:45:22.367Z,95.45
2022-08-22T09:46:31.491Z,104.98
2022-08-22T09:47:40.674Z,95.94
2022-08-22T09:48:49.889Z,96.67
2022-08-22T09:49:59.019Z,98.63
2022-08-22T09:51:07.205Z,92.52
2022-08-22T09:52:16.370Z,97.9
2022-08-22T09:53:25.582Z,94.97
2022-08-22T09:54:34.756Z,93.75
2022-08-22T09:55:43.917Z,94.23
2022-08-22T09:56:53.077Z,95.94
2022-08-22T09:58:02.234Z,95.7
2022-08-22T09:59:11.427Z,93.75
2022-08-22T10:00:20.579Z,94.23
2022-08-22T10:01:29.776Z,94.48
2022-08-22T10:02:38.939Z,97.16
2022-08-22T10:03:48.113Z,94.48
2022-08-22T10:04:57.275Z,97.9
2022-08-22T10:06:06.478Z,97.41
2022-08-22T10:07:14.633Z,96.43
2022-08-22T10:08:23.815Z,94.23
2022-08-22T10:09:32.993Z,95.94
2022-08-22T10:10:42.182Z,96.19
2022-08-22T10:11:51.355Z,97.16
2022-08-22T10:13:00.498Z,97.65
2022-08-22T10:14:09.712Z,111.81
2022-08-22T10:15:18.846Z,96.43
2022-08-22T10:16:28.025Z,97.41
2022-08-22T10:17:37.186Z,98.87
2022-08-22T10:18:46.376Z,100.09
2022-08-22T10:19:55.581Z,96.92
2022-08-22T10:21:04.707Z,99.12
2022-08-22T10:22:12.894Z,99.12
2022-08-22T10:23:22.076Z,100.34
2022-08-22T10:24:31.240Z,97.65
2022-08-22T10:25:40.420Z,98.63
2022-08-22T10:26:49.623Z,98.87
2022-08-22T10:27:58.787Z,98.38
2022-08-22T10:29:07.938Z,98.63
2022-08-22T10:30:17.118Z,101.31
2022-08-22T10:31:26.291Z,96.19
2022-08-22T10:32:35.505Z,95.21
2022-08-22T10:33:44.644Z,97.9
2022-08-22T10:34:53.828Z,98.63
2022-08-22T10:36:03.020Z,103.27
2022-08-22T10:37:11.166Z,99.6
2022-08-22T10:38:20.337Z,97.16
2022-08-22T10:39:29.497Z,101.56
2022-08-22T10:40:38.683Z,95.94
2022-08-22T10:41:47.870Z,99.36
2022-08-22T10:42:57.054Z,99.12
2022-08-22T10:44:06.197Z,100.34
2022-08-22T10:45:15.377Z,99.12
2022-08-22T10:46:24.550Z,97.9
2022-08-22T10:47:33.712Z,96.92
2022-08-22T10:48:42.930Z,97.41
2022-08-22T10:49:52.062Z,99.12
2022-08-22T10:51:01.247Z,98.14
2022-08-22T10:52:09.434Z,97.16
2022-08-22T10:53:18.601Z,97.9
2022-08-22T10:56:46.155Z,98.87
2022-08-22T10:57:55.339Z,99.12
2022-08-22T10:59:04.465Z,97.9
2022-08-22T11:00:13.662Z,97.41
2022-08-22T11:01:22.823Z,98.87
2022-08-22T11:02:32.019Z,96.43
2022-08-22T11:03:41.173Z,96.19
2022-08-22T11:04:50.318Z,97.9
2022-08-22T11:05:59.514Z,96.92
2022-08-22T11:07:08.672Z,97.16
2022-08-22T11:08:16.865Z,97.9
2022-08-22T11:09:26.029Z,97.65
2022-08-22T11:10:35.247Z,97.9
2022-08-22T11:11:44.409Z,95.94
2022-08-22T11:12:53.590Z,96.67
2022-08-22T11:14:02.719Z,98.38
2022-08-22T11:15:11.905Z,101.07
2022-08-22T11:16:21.058Z,97.41
2022-08-22T11:17:30.250Z,98.38
2022-08-22T11:18:39.415Z,96.92
2022-08-22T11:19:47.630Z,98.87
2022-08-22T11:20:55.800Z,97.41
2022-08-22T11:22:04.965Z,96.19
2022-08-22T11:23:14.160Z,98.38
2022-08-22T11:24:23.322Z,98.14
2022-08-22T11:25:32.487Z,99.85
2022-08-22T11:26:40.733Z,100.09
2022-08-22T11:27:49.859Z,97.16
2022-08-22T11:28:59.030Z,98.38
2022-08-22T11:30:08.242Z,99.36
2022-08-22T11:31:17.385Z,98.14
2022-08-22T11:32:26.567Z,100.58
2022-08-22T11:33:35.731Z,97.9
2022-08-22T11:34:44.912Z,99.85
2022-08-22T11:35:54.079Z,100.09
2022-08-22T11:37:03.226Z,98.63
2022-08-22T11:38:12.424Z,99.6
2022-08-22T11:39:21.579Z,98.63
2022-08-22T11:40:30.762Z,96.43
2022-08-22T11:41:38.932Z,98.14
2022-08-22T11:42:48.113Z,97.65
2022-08-22T11:43:57.287Z,99.6
2022-08-22T11:45:06.453Z,95.94
2022-08-22T11:46:15.636Z,95.7
2022-08-22T11:47:24.807Z,102.78
2022-08-22T11:48:33.977Z,96.67
2022-08-22T11:49:43.145Z,93.99
2022-08-22T11:50:52.331Z,96.19
2022-08-22T11:52:01.487Z,95.21
2022-08-22T11:53:10.673Z,95.45
2022-08-22T11:54:19.837Z,93.26
2022-08-22T11:55:29.038Z,93.26
2022-08-22T11:56:37.250Z,93.5
2022-08-22T11:57:46.413Z,92.28
2022-08-22T11:58:55.580Z,92.04
2022-08-22T12:00:04.737Z,91.55
2022-08-22T12:01:13.896Z,92.28
2022-08-22T12:02:23.068Z,94.97
2022-08-22T12:03:32.236Z,93.5
2022-08-22T12:04:41.429Z,93.75
2022-08-22T12:05:50.590Z,91.79
2022-08-22T12:06:59.764Z,92.52
2022-08-22T12:08:08.935Z,95.45
2022-08-22T12:09:18.102Z,95.94
2022-08-22T12:10:27.270Z,92.77
2022-08-22T12:11:35.500Z,93.5
2022-08-22T12:12:44.682Z,92.77
2022-08-22T12:13:53.822Z,93.75
2022-08-22T12:15:03.038Z,96.19
2022-08-22T12:16:12.155Z,92.28
2022-08-22T12:17:21.334Z,94.72
2022-08-22T12:18:29.564Z,94.72
2022-08-22T12:19:37.709Z,95.7
2022-08-22T12:20:46.885Z,94.23
2022-08-22T12:25:23.579Z,101.56
2022-08-22T12:27:41.931Z,94.97
2022-08-22T12:28:51.125Z,95.94
2022-08-22T12:32:18.632Z,96.19
2022-08-22T12:33:27.837Z,98.38
2022-08-22T12:34:36.001Z,99.6
2022-08-22T12:35:45.188Z,96.43
2022-08-22T12:36:54.327Z,96.19
2022-08-22T12:38:03.525Z,95.7
2022-08-22T12:39:12.676Z,95.45
2022-08-22T12:40:20.875Z,96.92
2022-08-22T12:41:30.046Z,98.14
2022-08-22T12:42:38.225Z,96.67
2022-08-22T12:43:47.402Z,99.6
2022-08-22T12:44:56.579Z,100.09
2022-08-22T12:46:05.738Z,98.38
2022-08-22T12:47:14.939Z,99.6
2022-08-22T12:48:24.093Z,98.14
2022-08-22T12:49:33.302Z,97.41
2022-08-22T12:50:42.447Z,97.9
2022-08-22T12:51:51.598Z,97.65
2022-08-22T12:52:59.826Z,99.12
2022-08-22T12:54:07.987Z,99.12
2022-08-22T12:55:17.207Z,98.63
2022-08-22T12:56:26.347Z,97.41
2022-08-22T12:57:35.510Z,100.09
2022-08-22T12:58:44.693Z,96.92
2022-08-22T12:59:53.856Z,96.92
2022-08-22T13:01:03.063Z,99.12
2022-08-22T13:02:12.201Z,100.34
2022-08-22T13:03:21.407Z,101.31
2022-08-22T13:04:30.543Z,98.14
2022-08-22T13:05:39.737Z,99.6
2022-08-22T13:06:47.919Z,100.58
2022-08-22T13:07:57.100Z,98.38
2022-08-22T13:09:05.277Z,98.87
2022-08-22T13:10:14.444Z,99.12
2022-08-22T13:11:23.628Z,100.58
2022-08-22T13:12:32.793Z,99.85
2022-08-22T13:13:41.999Z,95.94
2022-08-22T13:14:51.134Z,97.9
2022-08-22T13:16:00.322Z,95.21
2022-08-22T13:17:09.491Z,95.7
2022-08-22T13:18:18.674Z,96.19
2022-08-22T13:19:27.841Z,96.92
2022-08-22T13:20:37.013Z,97.9
2022-08-22T13:21:46.185Z,98.14
2022-08-22T13:22:55.365Z,96.92
2022-08-22T13:24:03.551Z,99.85
2022-08-22T13:25:12.706Z,101.31
2022-08-22T13:26:21.878Z,94.72
2022-08-22T13:27:31.097Z,104.73
2022-08-22T13:28:40.265Z,93.5
2022-08-22T13:29:49.436Z,97.16
2022-08-22T13:30:58.615Z,93.01
2022-08-22T13:32:07.746Z,94.97
2022-08-22T13:33:16.920Z,93.75
2022-08-22T13:34:26.091Z,97.41
2022-08-22T13:35:35.274Z,96.92
2022-08-22T13:36:44.428Z,93.26
2022-08-22T13:37:53.602Z,96.67
2022-08-22T13:39:01.839Z,93.01
2022-08-22T13:40:10.974Z,93.26
2022-08-22T13:41:20.186Z,93.5
2022-08-22T13:42:29.320Z,93.01
2022-08-22T13:43:38.495Z,92.52
2022-08-22T13:44:47.698Z,97.9
2022-08-22T13:45:56.883Z,93.75
2022-08-22T13:47:06.001Z,96.92
2022-08-22T13:48:15.169Z,93.99
2022-08-22T13:49:24.353Z,94.48
2022-08-22T13:50:33.520Z,93.5
2022-08-22T13:51:42.731Z,94.72
2022-08-22T13:52:51.892Z,94.48
2022-08-22T13:54:01.041Z,96.19
2022-08-22T13:55:09.243Z,94.72
2022-08-22T13:56:18.399Z,93.5
2022-08-22T13:57:27.597Z,109.37
2022-08-22T13:58:36.747Z,96.67
2022-08-22T13:59:45.936Z,95.94
2022-08-22T14:00:55.090Z,96.43
2022-08-22T14:02:04.268Z,94.48
2022-08-22T14:03:13.440Z,95.45
2022-08-22T14:04:22.616Z,95.7
2022-08-22T14:06:40.961Z,97.65
2022-08-22T14:07:50.139Z,97.65
2022-08-22T14:08:59.337Z,97.41
2022-08-22T14:10:08.484Z,98.87
2022-08-22T14:11:16.656Z,98.87
2022-08-22T14:13:35.015Z,99.6
2022-08-22T14:14:44.193Z,99.36
2022-08-22T14:15:53.380Z,99.85
2022-08-22T14:17:02.531Z,98.63
2022-08-22T14:18:11.702Z,98.63
2022-08-22T14:19:20.900Z,101.8
2022-08-22T14:20:30.043Z,98.87
2022-08-22T14:21:39.216Z,100.34
2022-08-22T14:22:48.412Z,100.09
2022-08-22T14:23:57.568Z,99.85
2022-08-22T14:25:06.731Z,99.36
2022-08-22T14:26:14.924Z,105.46
2022-08-22T14:27:24.096Z,99.85
2022-08-22T14:28:33.261Z,98.38
2022-08-22T14:29:42.438Z,99.85
2022-08-22T14:30:51.599Z,98.38
2022-08-22T14:32:00.774Z,98.63
2022-08-22T14:33:10.002Z,100.34
2022-08-22T14:34:19.148Z,96.19
2022-08-22T14:35:28.302Z,95.45
2022-08-22T14:36:37.476Z,97.41
2022-08-22T14:37:46.641Z,94.72
2022-08-22T14:38:55.823Z,96.43
2022-08-22T14:40:05.000Z,93.26
2022-08-22T14:41:14.182Z,96.19
2022-08-22T14:42:22.351Z,93.99
2022-08-22T14:43:31.517Z,94.23
2022-08-22T14:44:40.723Z,93.99
2022-08-22T14:45:49.879Z,94.97
2022-08-22T14:46:59.059Z,93.01
2022-08-22T14:48:08.217Z,94.48
2022-08-22T14:49:17.389Z,92.77
2022-08-22T14:50:26.572Z,94.72
2022-08-22T14:51:35.739Z,95.7
2022-08-22T14:52:44.942Z,95.21
2022-08-22T14:53:54.069Z,92.52
2022-08-22T14:55:03.252Z,93.99
2022-08-22T14:56:12.424Z,91.79
2022-08-22T14:57:21.601Z,92.28
2022-08-22T14:58:29.804Z,95.7
2022-08-22T14:59:38.971Z,94.23
2022-08-22T15:00:48.155Z,94.97
2022-08-22T15:01:57.318Z,93.01
2022-08-22T15:03:06.472Z,93.75
2022-08-22T15:04:15.682Z,92.52
2022-08-22T15:05:24.878Z,93.99